Time;durP1;ratioP1;P1;durP2;ratioP2;P2;SDS_P1;SDS_P2;PMS_P1;PMS_P2;Temp;Humidity;BMP_temperature;BMP_pressure;BME280_temperature;BME280_humidity;BME280_pressure;Samples;Min_cycle;Max_cycle;Signal;HPM_P1;HPM_P2
2022/12/31 00:00:38;;;;;;;11.60;11.40;;;11.40;99.90;;;;;;5054658;28;20462;-78
2022/12/31 00:03:07;;;;;;;12.43;12.23;;;11.40;99.90;;;;;;5054680;28;20467;-78
2022/12/31 00:05:37;;;;;;;12.30;12.10;;;11.40;99.90;;;;;;5056448;28;20457;-77
2022/12/31 00:08:05;;;;;;;12.50;12.20;;;11.40;99.90;;;;;;5034460;28;20443;-78
2022/12/31 00:10:40;;;;;;;12.47;12.23;;;11.40;99.90;;;;;;5055693;28;20452;-75
2022/12/31 00:13:08;;;;;;;12.67;12.30;;;11.40;99.90;;;;;;5055439;28;20488;-78
2022/12/31 00:15:37;;;;;;;12.70;12.40;;;11.40;99.90;;;;;;5047816;28;20540;-77
2022/12/31 00:18:05;;;;;;;12.90;12.60;;;11.40;99.90;;;;;;5053990;28;20812;-77
2022/12/31 00:20:33;;;;;;;12.40;12.20;;;11.50;99.90;;;;;;5054433;28;20450;-77
2022/12/31 00:23:02;;;;;;;12.70;12.40;;;11.50;99.90;;;;;;5056380;28;20887;-78
2022/12/31 00:25:30;;;;;;;11.40;11.20;;;11.50;99.90;;;;;;5053494;28;20457;-78
2022/12/31 00:27:58;;;;;;;12.90;12.60;;;11.50;99.90;;;;;;5052643;28;20955;-78
2022/12/31 00:30:27;;;;;;;12.60;12.40;;;11.50;99.90;;;;;;5058275;28;20496;-77
2022/12/31 00:32:55;;;;;;;13.33;12.90;;;11.50;99.90;;;;;;5056852;28;20476;-79
2022/12/31 00:35:23;;;;;;;13.40;13.10;;;11.50;99.90;;;;;;5056834;28;20469;-77
2022/12/31 00:37:52;;;;;;;12.73;12.53;;;11.60;99.90;;;;;;5058847;28;21025;-77
2022/12/31 00:40:21;;;;;;;13.23;12.77;;;11.60;99.90;;;;;;5056875;28;21001;-77
2022/12/31 00:42:49;;;;;;;12.67;12.47;;;11.60;99.90;;;;;;5058536;28;20510;-78
2022/12/31 00:45:17;;;;;;;13.07;12.77;;;11.70;99.90;;;;;;5054875;28;20454;-78
2022/12/31 00:47:45;;;;;;;13.40;13.00;;;11.80;99.90;;;;;;5057435;28;20450;-77
2022/12/31 00:50:13;;;;;;;12.77;12.57;;;11.80;99.90;;;;;;5057415;28;20459;-77
2022/12/31 00:52:42;;;;;;;12.37;12.03;;;11.90;99.90;;;;;;5056416;28;20554;-78
2022/12/31 00:55:10;;;;;;;13.00;12.70;;;11.90;99.90;;;;;;5055194;28;20460;-77
2022/12/31 00:57:39;;;;;;;12.80;12.60;;;11.90;99.90;;;;;;5054935;28;20569;-77
2022/12/31 01:00:09;;;;;;;12.53;12.30;;;12.00;99.90;;;;;;5057553;28;20452;-78
2022/12/31 01:02:37;;;;;;;12.60;12.40;;;12.10;99.90;;;;;;5056361;28;20487;-78
2022/12/31 01:05:07;;;;;;;12.67;12.40;;;12.10;99.90;;;;;;5053272;28;20451;-78
2022/12/31 01:07:37;;;;;;;12.67;12.27;;;12.10;99.90;;;;;;5056894;28;20501;-78
2022/12/31 01:10:06;;;;;;;12.30;12.10;;;12.10;99.90;;;;;;5057446;28;20459;-78
2022/12/31 01:12:34;;;;;;;12.80;12.60;;;12.20;99.90;;;;;;5056433;28;20470;-77
2022/12/31 01:15:04;;;;;;;11.97;11.77;;;12.20;99.90;;;;;;5056087;28;20455;-77
2022/12/31 01:17:32;;;;;;;11.70;11.40;;;12.20;99.90;;;;;;5055275;28;20884;-77
2022/12/31 01:20:00;;;;;;;11.23;11.03;;;12.20;99.90;;;;;;5058003;28;21092;-77
2022/12/31 01:22:28;;;;;;;12.67;12.37;;;12.20;98.50;;;;;;5053960;28;21143;-78
2022/12/31 01:24:56;;;;;;;12.10;11.80;;;12.30;94.50;;;;;;5058577;28;20514;-78
2022/12/31 01:27:24;;;;;;;12.00;11.80;;;12.30;93.60;;;;;;5058099;28;20463;-77
2022/12/31 01:29:52;;;;;;;11.90;11.70;;;12.30;92.20;;;;;;5058051;28;20460;-77
2022/12/31 01:32:21;;;;;;;12.00;11.80;;;12.30;90.10;;;;;;5058126;28;21063;-75
2022/12/31 01:34:50;;;;;;;12.23;11.87;;;12.30;81.50;;;;;;5053151;28;20479;-78
2022/12/31 01:37:18;;;;;;;11.80;11.60;;;12.40;77.90;;;;;;5057600;28;20448;-77
2022/12/31 01:39:46;;;;;;;12.63;12.23;;;12.30;77.60;;;;;;5055479;28;21144;-78
2022/12/31 01:42:14;;;;;;;12.10;11.70;;;12.30;74.70;;;;;;5058116;28;20487;-79
2022/12/31 01:44:53;;;;;;;11.83;11.60;;;12.30;69.40;;;;;;5058650;28;20458;-77
2022/12/31 01:47:31;;;;;;;11.70;11.50;;;12.40;57.80;;;;;;5058296;28;20517;-77
2022/12/31 01:50:06;;;;;;;11.50;11.30;;;12.40;53.80;;;;;;5057769;28;21330;-78
2022/12/31 01:52:37;;;;;;;11.07;10.87;;;12.40;49.30;;;;;;5059564;28;20535;-77
2022/12/31 01:55:12;;;;;;;10.90;10.60;;;12.40;42.60;;;;;;5056881;28;20455;-78
2022/12/31 01:57:41;;;;;;;11.13;10.87;;;12.40;33.60;;;;;;5054418;28;20459;-78
2022/12/31 02:00:10;;;;;;;10.87;10.57;;;12.40;31.10;;;;;;5057065;28;20454;-79
2022/12/31 02:02:39;;;;;;;11.50;11.20;;;12.40;30.80;;;;;;5056838;28;20471;-78
2022/12/31 02:05:17;;;;;;;10.83;10.53;;;12.40;28.10;;;;;;5052845;28;20542;-79
2022/12/31 02:07:47;;;;;;;10.20;10.00;;;12.40;21.80;;;;;;5055733;28;20443;-78
2022/12/31 02:10:15;;;;;;;9.47;9.27;;;12.40;13.70;;;;;;5056721;28;20749;-77
2022/12/31 02:12:43;;;;;;;8.70;8.60;;;12.40;8.70;;;;;;5056443;28;20470;-77
2022/12/31 02:15:11;;;;;;;10.70;10.50;;;12.40;1.00;;;;;;5059478;28;20515;-78
2022/12/31 02:17:48;;;;;;;10.30;10.10;;;12.40;2.30;;;;;;5054954;28;20455;-77
2022/12/31 02:21:14;;;;;;;10.03;9.83;;;12.40;1.00;;;;;;5055437;28;20482;-79
2022/12/31 02:24:21;;;;;;;11.27;10.53;;;12.50;1.00;;;;;;5013504;28;20453;-78
2022/12/31 02:26:58;;;;;;;9.70;9.50;;;12.50;1.00;;;;;;5015263;28;20461;-78
2022/12/31 02:29:58;;;;;;;10.60;10.30;;;12.50;1.00;;;;;;5054515;28;20556;-78
2022/12/31 02:32:37;;;;;;;10.13;9.90;;;12.50;1.00;;;;;;5055607;28;20470;-78
2022/12/31 02:35:10;;;;;;;9.70;9.50;;;12.50;1.00;;;;;;5055549;28;20525;-77
2022/12/31 02:37:40;;;;;;;9.57;9.37;;;12.50;1.00;;;;;;5057128;28;20485;-77
2022/12/31 02:40:14;;;;;;;9.67;9.37;;;12.60;1.00;;;;;;5058521;28;20551;-78
2022/12/31 02:42:43;;;;;;;8.80;8.70;;;12.60;1.00;;;;;;5056421;28;20479;-76
2022/12/31 02:45:19;;;;;;;9.03;8.83;;;12.60;1.00;;;;;;5055686;28;20446;-78
2022/12/31 02:48:05;;;;;;;8.60;8.40;;;12.60;1.00;;;;;;5056611;28;20488;-78
2022/12/31 02:50:54;;;;;;;8.23;8.10;;;12.70;1.00;;;;;;5055702;28;20447;-79
2022/12/31 02:53:38;;;;;;;8.40;8.30;;;12.70;1.00;;;;;;5055765;28;20462;-77
2022/12/31 02:56:15;;;;;;;8.10;7.90;;;12.70;1.00;;;;;;5058220;28;20486;-77
2022/12/31 03:04:35;;;;;;;7.93;7.73;;;12.80;1.00;;;;;;5052501;28;20464;-78
2022/12/31 03:07:05;;;;;;;6.77;6.47;;;12.80;1.00;;;;;;5057317;28;20549;-78
2022/12/31 03:09:34;;;;;;;7.90;7.80;;;12.80;1.00;;;;;;5052223;28;20452;-78
2022/12/31 03:14:49;;;;;;;7.60;7.40;;;12.90;1.00;;;;;;5052564;28;20458;-79
2022/12/31 03:17:17;;;;;;;8.00;7.80;;;12.90;1.00;;;;;;5057373;28;20467;-77
2022/12/31 03:22:33;;;;;;;7.30;7.20;;;12.90;1.00;;;;;;5052284;28;20498;-76
2022/12/31 03:27:49;;;;;;;7.90;7.70;;;12.90;1.00;;;;;;5054677;28;20519;-78
2022/12/31 03:30:19;;;;;;;8.50;8.30;;;13.00;1.00;;;;;;5055687;28;20495;-78
2022/12/31 03:32:48;;;;;;;8.03;7.93;;;13.00;1.00;;;;;;5053930;28;20512;-78
2022/12/31 03:35:20;;;;;;;7.83;7.73;;;13.00;1.00;;;;;;5066255;28;20976;-78
2022/12/31 03:37:49;;;;;;;7.80;7.70;;;13.00;1.00;;;;;;5054250;28;20907;-78
2022/12/31 03:40:19;;;;;;;8.30;8.13;;;13.00;1.00;;;;;;5053595;28;20575;-78
2022/12/31 03:42:47;;;;;;;8.10;8.00;;;13.10;1.00;;;;;;5053660;28;20494;-78
2022/12/31 03:45:16;;;;;;;8.07;7.90;;;13.00;1.00;;;;;;5054481;28;20732;-77
2022/12/31 03:47:45;;;;;;;8.57;8.37;;;13.10;1.00;;;;;;5052352;28;20946;-78
2022/12/31 03:50:15;;;;;;;8.50;8.30;;;13.10;1.00;;;;;;5054079;28;20453;-78
2022/12/31 03:52:45;;;;;;;8.67;8.40;;;13.10;1.00;;;;;;5037710;28;21017;-78
2022/12/31 03:55:14;;;;;;;8.30;8.10;;;13.10;1.00;;;;;;5053547;28;20451;-77
2022/12/31 03:57:43;;;;;;;7.23;7.13;;;13.10;1.00;;;;;;5051634;28;20862;-78
2022/12/31 04:00:14;;;;;;;7.57;7.27;;;13.20;1.00;;;;;;5051383;28;20569;-78
2022/12/31 04:02:42;;;;;;;7.40;7.30;;;13.20;1.00;;;;;;5048081;28;20530;-78
2022/12/31 04:05:11;;;;;;;6.93;6.73;;;13.20;1.00;;;;;;5055907;28;20505;-78
2022/12/31 04:07:39;;;;;;;8.83;8.53;;;13.20;1.00;;;;;;5060816;28;20450;-79
2022/12/31 04:10:12;;;;;;;7.33;7.20;;;13.20;1.00;;;;;;5057196;28;20452;-78
2022/12/31 04:12:40;;;;;;;8.37;8.17;;;13.30;1.00;;;;;;5053299;28;20530;-79
2022/12/31 04:15:12;;;;;;;8.30;8.10;;;13.30;1.00;;;;;;5059696;28;20465;-78
2022/12/31 04:17:40;;;;;;;8.80;8.60;;;13.20;1.00;;;;;;5058915;28;20505;-77
2022/12/31 04:20:09;;;;;;;8.20;8.10;;;13.30;1.00;;;;;;5059706;28;20514;-78
2022/12/31 04:22:38;;;;;;;8.23;8.00;;;13.30;1.00;;;;;;5061250;28;20459;-77
2022/12/31 04:25:10;;;;;;;8.23;8.13;;;13.40;1.00;;;;;;5058107;28;20490;-78
2022/12/31 04:27:42;;;;;;;8.20;8.00;;;13.30;1.00;;;;;;5058444;28;20440;-78
2022/12/31 04:30:11;;;;;;;8.43;8.23;;;13.40;1.00;;;;;;5055892;28;20450;-79
2022/12/31 04:32:40;;;;;;;8.10;8.00;;;13.40;1.00;;;;;;5059727;28;20466;-77
2022/12/31 04:35:10;;;;;;;7.73;7.63;;;13.40;1.00;;;;;;5059653;28;20552;-79
2022/12/31 04:37:38;;;;;;;8.23;8.03;;;13.40;1.00;;;;;;5058637;28;20496;-78
2022/12/31 04:40:07;;;;;;;7.90;7.80;;;13.40;1.00;;;;;;5059704;28;20518;-78
2022/12/31 04:42:36;;;;;;;8.10;8.00;;;13.40;1.00;;;;;;5054231;28;20486;-79
2022/12/31 04:45:07;;;;;;;8.00;7.90;;;13.40;1.00;;;;;;5057458;28;20540;-78
2022/12/31 04:47:35;;;;;;;8.00;7.80;;;13.40;1.00;;;;;;5058687;28;20445;-78
2022/12/31 04:50:03;;;;;;;8.20;8.00;;;13.40;1.00;;;;;;5057850;28;20500;-78
2022/12/31 04:52:31;;;;;;;7.83;7.73;;;13.40;1.00;;;;;;5056993;28;20476;-78
2022/12/31 04:55:08;;;;;;;8.30;8.10;;;13.40;1.00;;;;;;5058371;28;20548;-79
2022/12/31 04:57:36;;;;;;;8.03;7.93;;;13.40;1.00;;;;;;5055936;28;20452;-78
2022/12/31 05:00:07;;;;;;;8.23;8.13;;;13.50;1.00;;;;;;5058828;28;20466;-78
2022/12/31 05:02:35;;;;;;;8.40;8.20;;;13.40;1.00;;;;;;5053609;28;20495;-77
2022/12/31 05:05:03;;;;;;;8.43;8.33;;;13.40;1.00;;;;;;5057462;28;20463;-78
2022/12/31 05:07:31;;;;;;;8.77;8.47;;;13.40;1.00;;;;;;5053598;28;20453;-78
2022/12/31 05:10:00;;;;;;;8.20;8.00;;;13.40;1.00;;;;;;5053704;28;20463;-79
2022/12/31 05:12:28;;;;;;;8.90;8.70;;;13.40;1.00;;;;;;5057379;28;20500;-79
2022/12/31 05:14:56;;;;;;;8.50;8.30;;;13.40;1.00;;;;;;5055447;28;20480;-78
2022/12/31 05:17:25;;;;;;;8.37;8.20;;;13.50;1.00;;;;;;5053709;28;20458;-79
2022/12/31 05:19:54;;;;;;;8.30;8.20;;;13.40;1.00;;;;;;5054214;28;20994;-78
2022/12/31 05:22:31;;;;;;;8.37;8.27;;;13.40;1.00;;;;;;5055803;28;20544;-78
2022/12/31 05:25:00;;;;;;;8.53;8.43;;;13.40;1.00;;;;;;5056762;28;20462;-77
2022/12/31 05:27:30;;;;;;;8.60;8.40;;;13.40;1.00;;;;;;5054857;28;20551;-78
2022/12/31 05:29:59;;;;;;;8.17;7.97;;;13.50;1.00;;;;;;5056495;28;20498;-78
2022/12/31 05:32:28;;;;;;;8.30;8.10;;;13.50;1.00;;;;;;5056346;28;20469;-77
2022/12/31 05:34:58;;;;;;;7.80;7.70;;;13.50;1.00;;;;;;5055225;28;20547;-79
2022/12/31 05:37:28;;;;;;;7.70;7.57;;;13.40;1.00;;;;;;5055807;28;20461;-78
2022/12/31 05:39:56;;;;;;;7.63;7.53;;;13.50;1.00;;;;;;5053874;28;20484;-78
2022/12/31 05:42:24;;;;;;;7.97;7.77;;;13.50;1.00;;;;;;5051788;28;20492;-78
2022/12/31 05:44:53;;;;;;;8.13;7.83;;;13.50;1.00;;;;;;5054551;28;20463;-78
2022/12/31 05:47:21;;;;;;;7.53;7.43;;;13.40;1.00;;;;;;5055593;28;20474;-78
2022/12/31 05:49:51;;;;;;;7.47;7.37;;;13.40;1.00;;;;;;5052536;28;20477;-78
2022/12/31 05:52:19;;;;;;;7.93;7.43;;;13.40;1.00;;;;;;5054512;28;20486;-77
2022/12/31 05:54:47;;;;;;;7.20;7.10;;;13.40;1.00;;;;;;5054953;28;20454;-78
2022/12/31 05:57:15;;;;;;;7.37;7.20;;;13.40;1.00;;;;;;5053222;28;20473;-77
2022/12/31 05:59:43;;;;;;;7.57;7.37;;;13.30;1.00;;;;;;5055616;28;20964;-78
2022/12/31 06:02:11;;;;;;;6.50;6.30;;;13.30;1.00;;;;;;5057947;28;20483;-78
2022/12/31 06:04:40;;;;;;;6.83;6.73;;;13.30;1.00;;;;;;5057834;28;20454;-77
2022/12/31 06:07:09;;;;;;;6.70;6.40;;;13.30;1.00;;;;;;5055073;28;20448;-78
2022/12/31 06:09:37;;;;;;;6.40;6.30;;;13.30;1.00;;;;;;5055357;28;20460;-77
2022/12/31 06:12:06;;;;;;;7.27;6.67;;;13.30;1.00;;;;;;5053136;28;20551;-78
2022/12/31 06:14:34;;;;;;;6.50;6.40;;;13.30;1.00;;;;;;5056790;28;20571;-78
2022/12/31 06:17:09;;;;;;;6.47;6.37;;;13.20;1.00;;;;;;5054982;28;20456;-78
2022/12/31 06:19:37;;;;;;;6.50;6.40;;;13.30;1.00;;;;;;5057085;28;20458;-78
2022/12/31 06:22:05;;;;;;;6.30;6.20;;;13.20;1.00;;;;;;5052956;28;20476;-79
2022/12/31 06:24:34;;;;;;;6.33;6.20;;;13.30;1.00;;;;;;5055859;28;20512;-79
2022/12/31 06:27:02;;;;;;;6.20;6.10;;;13.20;1.00;;;;;;5053524;28;20464;-78
2022/12/31 06:29:31;;;;;;;6.50;6.40;;;13.20;1.00;;;;;;5054317;28;20481;-77
2022/12/31 06:31:59;;;;;;;6.50;6.30;;;13.20;1.00;;;;;;5054884;28;20469;-78
2022/12/31 06:34:27;;;;;;;6.40;6.30;;;13.20;1.00;;;;;;5054005;28;20511;-79
2022/12/31 06:36:55;;;;;;;6.80;6.60;;;13.20;1.00;;;;;;5054810;28;20452;-78
2022/12/31 06:39:23;;;;;;;6.40;6.20;;;13.30;1.00;;;;;;5051134;28;20584;-79
2022/12/31 06:41:53;;;;;;;6.50;6.30;;;13.20;1.00;;;;;;5055104;28;20870;-78
2022/12/31 06:44:22;;;;;;;6.10;6.00;;;13.20;1.00;;;;;;5048822;28;20947;-79
2022/12/31 06:46:51;;;;;;;6.33;6.20;;;13.20;1.00;;;;;;5054217;28;20468;-79
2022/12/31 06:49:20;;;;;;;6.57;6.37;;;13.20;1.00;;;;;;5052338;28;20799;-78
2022/12/31 06:51:48;;;;;;;6.60;6.20;;;13.20;1.00;;;;;;5053285;28;20541;-77
2022/12/31 06:54:16;;;;;;;6.80;6.60;;;13.30;1.00;;;;;;5054159;28;20957;-78
2022/12/31 06:56:45;;;;;;;6.50;6.40;;;13.30;1.00;;;;;;5053758;28;20574;-78
2022/12/31 06:59:24;;;;;;;6.60;6.50;;;13.20;1.00;;;;;;5053268;28;20495;-79
2022/12/31 07:02:53;;;;;;;6.20;6.10;;;13.20;1.00;;;;;;5037270;28;20489;-78
2022/12/31 07:05:30;;;;;;;6.07;5.97;;;13.20;1.00;;;;;;5031363;28;20532;-78
2022/12/31 07:08:12;;;;;;;5.83;5.73;;;13.20;1.00;;;;;;5029927;28;20479;-78
2022/12/31 07:10:49;;;;;;;6.10;6.00;;;13.10;1.00;;;;;;5045716;28;20488;-79
2022/12/31 07:13:53;;;;;;;5.80;5.70;;;13.20;1.00;;;;;;5052342;28;20489;-78
2022/12/31 07:16:36;;;;;;;6.00;5.90;;;13.20;1.00;;;;;;5051863;28;20489;-78
2022/12/31 07:19:17;;;;;;;6.23;5.97;;;13.20;1.00;;;;;;5054833;28;20470;-79
2022/12/31 07:21:45;;;;;;;5.70;5.60;;;13.20;1.00;;;;;;5052729;28;20502;-79
2022/12/31 07:24:15;;;;;;;5.90;5.80;;;13.20;1.00;;;;;;5052186;28;20452;-78
2022/12/31 07:26:57;;;;;;;6.00;5.90;;;13.20;1.00;;;;;;5054691;28;20458;-78
2022/12/31 07:29:40;;;;;;;6.30;6.20;;;13.30;1.00;;;;;;5056012;28;20521;-77
2022/12/31 07:32:23;;;;;;;6.40;6.13;;;13.30;1.00;;;;;;5057718;28;20526;-80
2022/12/31 07:35:09;;;;;;;6.03;5.93;;;13.30;1.00;;;;;;5052281;28;20450;-78
2022/12/31 07:37:47;;;;;;;6.37;6.27;;;13.30;1.00;;;;;;5055775;28;21237;-77
2022/12/31 07:40:21;;;;;;;6.70;6.40;;;13.30;1.00;;;;;;5055185;28;20455;-80
2022/12/31 07:43:01;;;;;;;5.90;5.80;;;13.30;1.00;;;;;;5055697;28;20490;-79
2022/12/31 07:45:36;;;;;;;6.10;6.00;;;13.40;1.00;;;;;;5055573;28;20812;-79
2022/12/31 07:48:24;;;;;;;6.10;6.00;;;13.40;1.00;;;;;;5055020;28;20441;-77
2022/12/31 07:50:54;;;;;;;6.00;5.90;;;13.40;1.00;;;;;;5055244;28;20468;-77
2022/12/31 07:53:23;;;;;;;6.00;5.80;;;13.40;1.00;;;;;;5055857;28;20479;-77
2022/12/31 07:55:55;;;;;;;5.73;5.63;;;13.40;1.00;;;;;;5052506;28;20469;-78
2022/12/31 07:58:31;;;;;;;6.03;5.93;;;13.40;1.00;;;;;;5056064;28;20548;-77
2022/12/31 08:01:01;;;;;;;6.70;6.50;;;13.40;1.00;;;;;;5054093;28;21181;-77
2022/12/31 08:03:45;;;;;;;6.53;6.33;;;13.40;1.00;;;;;;5056624;28;20458;-76
2022/12/31 08:06:22;;;;;;;5.93;5.83;;;13.40;1.00;;;;;;5056592;28;20601;-77
2022/12/31 08:08:58;;;;;;;5.97;5.87;;;13.40;1.00;;;;;;5054254;28;20474;-78
2022/12/31 08:11:35;;;;;;;6.10;5.90;;;13.40;1.00;;;;;;5054014;28;20887;-78
2022/12/31 08:14:03;;;;;;;5.77;5.57;;;13.50;1.00;;;;;;5057401;28;20578;-78
2022/12/31 08:16:32;;;;;;;5.60;5.50;;;13.50;1.00;;;;;;5055143;28;20455;-77
2022/12/31 08:19:02;;;;;;;5.40;5.30;;;13.50;1.00;;;;;;5054641;28;20446;-78
2022/12/31 08:21:39;;;;;;;5.87;5.77;;;13.50;1.00;;;;;;5051803;28;20588;-73
2022/12/31 08:24:14;;;;;;;5.30;5.20;;;13.50;1.00;;;;;;5050345;28;20543;-78
2022/12/31 08:26:51;;;;;;;5.40;5.20;;;13.60;1.00;;;;;;5054465;28;20476;-77
2022/12/31 08:29:34;;;;;;;5.03;4.83;;;13.60;1.00;;;;;;5054583;28;20464;-77
2022/12/31 08:32:09;;;;;;;5.07;4.97;;;13.70;99.90;;;;;;5054292;28;20483;-77
2022/12/31 08:34:46;;;;;;;5.60;5.40;;;13.70;99.90;;;;;;5055048;28;20536;-77
2022/12/31 08:37:23;;;;;;;5.43;5.30;;;13.90;99.90;;;;;;5056321;28;20458;-77
2022/12/31 08:40:02;;;;;;;5.83;5.73;;;13.90;99.90;;;;;;5052874;28;20466;-78
2022/12/31 08:42:39;;;;;;;5.80;5.70;;;13.90;99.90;;;;;;5052420;28;20486;-78
2022/12/31 08:45:15;;;;;;;5.40;5.30;;;13.90;99.90;;;;;;5058284;28;20466;-78
2022/12/31 08:47:56;;;;;;;5.20;5.10;;;13.90;82.90;;;;;;5056753;28;20955;-78
2022/12/31 08:50:29;;;;;;;4.70;4.60;;;13.90;99.90;;;;;;5051183;28;21361;-77
2022/12/31 08:52:58;;;;;;;4.90;4.80;;;13.90;99.90;;;;;;5052789;28;21037;-77
2022/12/31 08:55:27;;;;;;;4.67;4.57;;;14.00;1.00;;;;;;5055292;28;20734;-78
2022/12/31 08:58:08;;;;;;;4.67;4.57;;;14.00;99.90;;;;;;5057849;28;21169;-78
2022/12/31 09:00:37;;;;;;;4.70;4.60;;;14.00;1.00;;;;;;5056860;28;21000;-78
2022/12/31 09:03:28;;;;;;;4.90;4.70;;;14.00;1.00;;;;;;5054320;28;20524;-77
2022/12/31 09:06:06;;;;;;;4.40;4.30;;;14.10;1.00;;;;;;5057961;28;20456;-78
2022/12/31 09:08:41;;;;;;;3.80;3.70;;;14.10;99.90;;;;;;5055323;28;20629;-78
2022/12/31 09:11:14;;;;;;;4.27;4.10;;;14.10;38.80;;;;;;5054712;28;21252;-77
2022/12/31 09:14:07;;;;;;;4.00;3.90;;;14.30;1.00;;;;;;5056312;28;20454;-78
2022/12/31 09:16:46;;;;;;;4.00;3.90;;;14.30;99.90;;;;;;5055341;28;20461;-79
2022/12/31 09:19:14;;;;;;;4.27;4.17;;;14.40;99.90;;;;;;5055003;28;20461;-78
2022/12/31 09:21:44;;;;;;;4.10;4.00;;;14.50;99.90;;;;;;5055213;28;20533;-78
2022/12/31 09:24:13;;;;;;;4.10;4.00;;;14.70;99.90;;;;;;5056343;28;20462;-78
2022/12/31 09:26:55;;;;;;;4.00;3.90;;;14.80;1.00;;;;;;5057188;28;20462;-78
2022/12/31 09:29:39;;;;;;;3.90;3.80;;;14.80;1.00;;;;;;5054918;28;20969;-77
2022/12/31 09:32:19;;;;;;;3.87;3.77;;;14.90;42.30;;;;;;5056475;28;20481;-75
2022/12/31 09:34:56;;;;;;;3.70;3.60;;;14.90;1.00;;;;;;5051959;28;20526;-77
2022/12/31 09:37:42;;;;;;;3.90;3.80;;;15.10;99.90;;;;;;5054590;28;20458;-78
2022/12/31 09:40:39;;;;;;;3.77;3.67;;;15.20;1.00;;;;;;5055574;28;21006;-76
2022/12/31 09:43:26;;;;;;;3.60;3.50;;;15.50;99.90;;;;;;5053757;28;20532;-77
2022/12/31 09:46:29;;;;;;;3.30;3.20;;;15.70;1.00;;;;;;5055336;28;20529;-77
2022/12/31 09:49:18;;;;;;;3.43;3.33;;;15.80;99.90;;;;;;5054968;28;20459;-77
2022/12/31 09:51:56;;;;;;;3.40;3.30;;;15.80;99.90;;;;;;5056701;28;20475;-78
2022/12/31 09:54:39;;;;;;;3.43;3.33;;;15.80;60.80;;;;;;5051258;28;20465;-77
2022/12/31 09:57:29;;;;;;;3.20;3.10;;;16.00;99.90;;;;;;5058208;28;20475;-78
2022/12/31 10:00:03;;;;;;;3.10;3.00;;;16.30;1.00;;;;;;5059698;28;20456;-79
2022/12/31 10:02:51;;;;;;;2.90;2.70;;;16.40;99.90;;;;;;5054984;28;20485;-78
2022/12/31 10:05:43;;;;;;;3.40;3.30;;;16.60;99.90;;;;;;5052791;28;20449;-78
2022/12/31 10:08:26;;;;;;;2.87;2.77;;;16.80;99.90;;;;;;5056689;28;20491;-77
2022/12/31 10:10:59;;;;;;;2.83;2.80;;;17.00;99.90;;;;;;5057474;28;20461;-78
2022/12/31 10:13:40;;;;;;;2.90;2.80;;;17.20;99.90;;;;;;5054600;28;20502;-76
2022/12/31 10:16:45;;;;;;;2.70;2.70;;;17.30;99.00;;;;;;5055655;28;20449;-78
2022/12/31 10:19:58;;;;;;;2.80;2.70;;;17.20;57.80;;;;;;5052502;28;20473;-77
2022/12/31 10:23:07;;;;;;;2.90;2.80;;;17.30;15.30;;;;;;5049542;28;20523;-77
2022/12/31 10:26:02;;;;;;;2.87;2.77;;;17.50;1.00;;;;;;5053905;28;20784;-76
2022/12/31 10:28:43;;;;;;;2.63;2.53;;;17.60;24.40;;;;;;5056262;28;20450;-78
2022/12/31 10:31:15;;;;;;;2.50;2.40;;;17.80;1.00;;;;;;5059820;28;20440;-77
2022/12/31 10:33:51;;;;;;;2.30;2.30;;;18.10;1.00;;;;;;5053889;28;20456;-78
2022/12/31 10:36:23;;;;;;;2.10;2.10;;;18.40;1.00;;;;;;5054326;28;20550;-77
2022/12/31 10:39:06;;;;;;;2.80;2.60;;;18.40;1.00;;;;;;5053513;28;20454;-77
2022/12/31 10:42:05;;;;;;;2.10;2.10;;;18.70;1.00;;;;;;5057238;28;20463;-78
2022/12/31 10:44:56;;;;;;;2.27;2.20;;;19.10;1.00;;;;;;5050556;28;20484;-77
2022/12/31 10:48:12;;;;;;;2.30;2.20;;;19.30;1.00;;;;;;5035342;28;20458;-78
2022/12/31 10:51:01;;;;;;;1.87;1.80;;;19.30;1.00;;;;;;5023563;28;20452;-78
2022/12/31 10:54:02;;;;;;;2.30;1.77;;;19.20;1.00;;;;;;5052159;28;20440;-77
2022/12/31 10:56:59;;;;;;;1.60;1.60;;;19.10;99.90;;;;;;5049067;28;20502;-77
2022/12/31 10:59:53;;;;;;;1.80;1.70;;;19.20;99.90;;;;;;5056340;28;20903;-79
2022/12/31 11:03:08;;;;;;;1.60;1.60;;;19.00;99.90;;;;;;5054533;28;20462;-77
2022/12/31 11:06:26;;;;;;;2.13;1.70;;;19.10;99.90;;;;;;5046087;28;20473;-78
2022/12/31 11:09:21;;;;;;;1.63;1.63;;;18.90;99.90;;;;;;5052378;28;20806;-77
2022/12/31 11:11:56;;;;;;;1.77;1.67;;;19.10;99.90;;;;;;5052366;28;20477;-78
2022/12/31 11:14:46;;;;;;;1.80;1.70;;;19.10;99.90;;;;;;5050582;28;20457;-77
2022/12/31 11:17:41;;;;;;;1.87;1.77;;;19.20;99.90;;;;;;5058989;28;20508;-77
2022/12/31 11:20:37;;;;;;;2.00;1.90;;;19.20;99.90;;;;;;5053249;28;21353;-78
2022/12/31 11:23:21;;;;;;;1.77;1.67;;;19.30;99.90;;;;;;5053158;28;20564;-77
2022/12/31 11:26:01;;;;;;;1.50;1.50;;;19.20;99.90;;;;;;5051326;28;20934;-78
2022/12/31 11:28:41;;;;;;;1.53;1.53;;;19.10;99.90;;;;;;5053752;28;21133;-77
2022/12/31 11:31:23;;;;;;;1.90;1.80;;;18.80;99.90;;;;;;5056041;28;20461;-78
2022/12/31 11:34:09;;;;;;;1.80;1.70;;;18.90;99.90;;;;;;5050982;28;20520;-78
2022/12/31 11:36:47;;;;;;;1.57;1.47;;;18.70;99.90;;;;;;5053083;28;20505;-78
2022/12/31 11:39:33;;;;;;;1.47;1.47;;;18.70;99.90;;;;;;5052883;28;20899;-77
2022/12/31 11:42:12;;;;;;;1.80;1.70;;;18.60;99.90;;;;;;5051062;28;20879;-78
2022/12/31 11:44:47;;;;;;;1.60;1.50;;;18.60;99.90;;;;;;5054728;28;20531;-77
2022/12/31 11:47:49;;;;;;;1.40;1.40;;;18.70;99.90;;;;;;5054584;28;20462;-78
2022/12/31 11:50:48;;;;;;;1.50;1.40;;;18.60;99.90;;;;;;5055744;28;20447;-78
2022/12/31 11:53:33;;;;;;;1.50;1.40;;;18.60;99.90;;;;;;5053186;28;20497;-78
2022/12/31 11:56:12;;;;;;;1.80;1.47;;;18.70;99.90;;;;;;5049382;28;20488;-78
2022/12/31 11:58:46;;;;;;;1.43;1.43;;;18.70;99.90;;;;;;5033827;28;20482;-78
2022/12/31 12:01:20;;;;;;;1.37;1.30;;;18.70;99.90;;;;;;5053155;28;20687;-78
2022/12/31 12:03:48;;;;;;;1.53;1.50;;;18.70;99.90;;;;;;5053019;28;20482;-78
2022/12/31 12:06:29;;;;;;;1.43;1.43;;;18.70;99.90;;;;;;5052561;28;20576;-77
2022/12/31 12:09:06;;;;;;;1.40;1.30;;;18.60;99.90;;;;;;5055833;28;20496;-78
2022/12/31 12:11:38;;;;;;;1.50;1.50;;;18.70;99.90;;;;;;5055252;28;21023;-78
2022/12/31 12:14:19;;;;;;;1.50;1.40;;;18.80;99.90;;;;;;5053715;28;20831;-78
2022/12/31 12:16:52;;;;;;;1.70;1.70;;;18.80;99.90;;;;;;5053158;28;20771;-78
2022/12/31 12:19:31;;;;;;;1.40;1.40;;;18.80;99.90;;;;;;5059702;28;20835;-78
2022/12/31 12:22:08;;;;;;;1.70;1.60;;;18.70;99.90;;;;;;5056156;28;20472;-77
2022/12/31 12:24:38;;;;;;;1.60;1.50;;;18.70;99.90;;;;;;5050816;28;20548;-78
2022/12/31 12:27:21;;;;;;;1.40;1.40;;;18.70;99.90;;;;;;5052910;28;20462;-78
2022/12/31 12:29:50;;;;;;;1.50;1.40;;;18.60;99.90;;;;;;5054651;28;20523;-78
2022/12/31 12:32:21;;;;;;;1.40;1.40;;;18.60;99.90;;;;;;5055848;28;20476;-77
2022/12/31 12:34:50;;;;;;;1.60;1.50;;;18.50;99.90;;;;;;5057963;28;20458;-78
2022/12/31 12:37:31;;;;;;;1.40;1.40;;;18.50;99.90;;;;;;5057677;28;20445;-78
2022/12/31 12:40:02;;;;;;;1.30;1.30;;;18.60;99.90;;;;;;5055680;28;20906;-78
2022/12/31 12:42:31;;;;;;;1.30;1.30;;;18.50;99.90;;;;;;5041111;28;20519;-78
2022/12/31 12:45:06;;;;;;;1.43;1.33;;;18.50;99.90;;;;;;5056983;28;20530;-78
2022/12/31 12:47:35;;;;;;;1.37;1.37;;;18.50;99.90;;;;;;5054856;28;20464;-76
2022/12/31 12:50:04;;;;;;;1.20;1.20;;;18.50;99.90;;;;;;5057833;28;20537;-79
2022/12/31 12:52:58;;;;;;;1.40;1.40;;;18.50;99.90;;;;;;5053817;28;20483;-79
2022/12/31 12:55:40;;;;;;;1.30;1.30;;;18.60;99.90;;;;;;5053827;28;20459;-78
2022/12/31 12:58:18;;;;;;;2.00;1.20;;;18.50;99.90;;;;;;5053154;28;20448;-78
2022/12/31 13:00:54;;;;;;;1.47;1.30;;;18.50;99.90;;;;;;5054216;28;20472;-77
2022/12/31 13:03:58;;;;;;;1.30;1.30;;;18.40;99.90;;;;;;5054613;28;20481;-78
2022/12/31 13:07:12;;;;;;;1.20;1.20;;;18.40;99.90;;;;;;5052437;28;20512;-77
2022/12/31 13:10:00;;;;;;;1.20;1.20;;;18.30;99.90;;;;;;5049691;28;20454;-78
2022/12/31 13:12:35;;;;;;;1.20;1.20;;;18.10;99.90;;;;;;5037630;28;20625;-78
2022/12/31 13:15:30;;;;;;;1.20;1.20;;;18.10;99.90;;;;;;5054746;28;20806;-77
2022/12/31 13:18:09;;;;;;;1.30;1.30;;;18.00;99.90;;;;;;5053367;28;20446;-79
2022/12/31 13:20:44;;;;;;;1.33;1.30;;;18.00;99.90;;;;;;5054747;28;20520;-78
2022/12/31 13:23:19;;;;;;;1.40;1.40;;;18.00;99.90;;;;;;5056931;28;20897;-78
2022/12/31 13:26:05;;;;;;;1.57;1.57;;;18.00;99.90;;;;;;5056164;28;20489;-78
2022/12/31 13:28:39;;;;;;;1.23;1.20;;;17.90;99.90;;;;;;5057463;28;20456;-78
2022/12/31 13:31:11;;;;;;;1.37;1.30;;;17.90;99.90;;;;;;5055246;28;20465;-76
2022/12/31 13:33:43;;;;;;;1.30;1.30;;;17.90;99.90;;;;;;5060114;28;20477;-78
2022/12/31 13:36:17;;;;;;;1.30;1.30;;;17.80;99.90;;;;;;5057780;28;20820;-77
2022/12/31 13:38:48;;;;;;;1.40;1.30;;;17.80;99.90;;;;;;5058960;28;20485;-77
2022/12/31 13:41:21;;;;;;;1.80;1.70;;;17.80;1.00;;;;;;5057290;28;20523;-78
2022/12/31 13:43:56;;;;;;;1.70;1.60;;;17.70;1.00;;;;;;5058311;28;20448;-78
2022/12/31 13:46:34;;;;;;;1.30;1.30;;;17.80;1.00;;;;;;5054728;28;20468;-77